Jacquelin Marie — WDF6565 — position and weather

sailwx.info

Track history (hours):
 
Tides and Currents Weather Stations Pressure Air Temp Water Temp Dewpoint Dewpoint Depression Visibility Wind Speed Wind Dir Waves Ship Positions

Jacquelin Marie

Owner: Hicks, Larry W, Niceville, FL. More information available from US FCC via Universal Licensing System and Coast Guard Vessel Documentation Center.

Last reported at 2017-Oct-19 14:38 UTC. Time now 2017-Oct-23 06:07 UTC.
Position N 30°30' W 086°27'.

Length 21 m.

Type: Fishing. MMSI: 367475570.

Date/timePositionNaut miles runAvg speedWind from/ knotsBaromVisibWave heightAir tempDewpointWater temp
2017-Oct-19 14:38N 30°30' W 086°27'1 5.8
2017-Oct-19 14:28N 30°29' W 086°27'4 8.4
2017-Oct-19 14:00N 30°26' W 086°25'  
2017-Oct-12 18:43N 30°26' W 086°21'2 9.5
2017-Oct-12 18:30N 30°26' W 086°23'4 8.0
2017-Oct-12 18:00N 30°29' W 086°27'2 0.0
2017-Oct-10 20:22N 30°30' W 086°27'3 7.8
2017-Oct-10 20:00N 30°28' W 086°26'5 4.0
2017-Oct-10 18:51N 30°26' W 086°21'3 8.4
2017-Oct-10 18:30N 30°26' W 086°25'4 8.0
2017-Oct-10 18:00N 30°29' W 086°27'0 0.8
2017-Oct-10 17:25N 30°30' W 086°27'0 0.0
2017-Oct-10 16:55N 30°30' W 086°27'0 0.5
2017-Oct-10 16:30N 30°30' W 086°27'  
Track history (hours):
 
Tides and Currents Weather Stations Pressure Air Temp Water Temp Dewpoint Dewpoint Depression Visibility Wind Speed Wind Dir Waves Ship Positions

Jacquelin Marie

Owner: Hicks, Larry W, Niceville, FL. More information available from US FCC via Universal Licensing System and Coast Guard Vessel Documentation Center.

Last reported at 2017-Oct-19 14:38 UTC. Time now 2017-Oct-23 06:07 UTC.
Position N 30°30' W 086°27'.

Length 21 m.

Type: Fishing. MMSI: 367475570.

Date/timePositionNaut miles runAvg speedWind from/ knotsBaromVisibWave heightAir tempDewpointWater temp
2017-Oct-19 14:38N 30°30' W 086°27'1 5.8
2017-Oct-19 14:28N 30°29' W 086°27'4 8.4
2017-Oct-19 14:00N 30°26' W 086°25'  
2017-Oct-12 18:43N 30°26' W 086°21'2 9.5
2017-Oct-12 18:30N 30°26' W 086°23'4 8.0
2017-Oct-12 18:00N 30°29' W 086°27'2 0.0
2017-Oct-10 20:22N 30°30' W 086°27'3 7.8
2017-Oct-10 20:00N 30°28' W 086°26'5 4.0
2017-Oct-10 18:51N 30°26' W 086°21'3 8.4
2017-Oct-10 18:30N 30°26' W 086°25'4 8.0
2017-Oct-10 18:00N 30°29' W 086°27'0 0.8
2017-Oct-10 17:25N 30°30' W 086°27'0 0.0
2017-Oct-10 16:55N 30°30' W 086°27'0 0.5
2017-Oct-10 16:30N 30°30' W 086°27'  

Dump ship's entire track history